<?xml version="1.0" encoding="UTF-8" standalone="no" ?>
<gpx xmlns="http://www.topografix.com/GPX/1/1" xmlns:xsi="http://www.w3.org/2001/XMLSchema-instance" xsi:schemaLocation="http://www.topografix.com/GPX/1/1 http://www.topografix.com/GPX/1/1/gpx.xsd" version="1.1" creator="VisuGPX - https://www.visugpx.com">
  <metadata>
    <name>Rando VTT du 10 juin 2012 / Craponne -&gt; Table d\'orientation Haut de bruyére</name>
    <desc><![CDATA[Rando VTT du 10 juin 2012 / Craponne -> Table d\'orientation Haut de bruyére]]></desc>
  </metadata>
  <trk>
    <name><![CDATA[10-JUIN-12 11:21:12]]></name>
    <trkseg>
      <trkpt lat="45.74258" lon="4.7096">
        <ele>298.63</ele>
        <time>2012-06-10T07:05:40Z</time>
      </trkpt>
      <trkpt lat="45.74258" lon="4.7096">
        <ele>298.63</ele>
        <time>2012-06-10T07:05:54Z</time>
      </trkpt>
      <trkpt lat="45.74258" lon="4.7096">
        <ele>298.63</ele>
        <time>2012-06-10T07:05:56Z</time>
      </trkpt>
      <trkpt lat="45.74259" lon="4.7096">
        <ele>298.63</ele>
        <time>2012-06-10T07:06:05Z</time>
      </trkpt>
      <trkpt lat="45.74259" lon="4.7096">
        <ele>299.59</ele>
        <time>2012-06-10T07:06:18Z</time>
      </trkpt>
      <trkpt lat="45.74259" lon="4.70959">
        <ele>300.55</ele>
        <time>2012-06-10T07:06:36Z</time>
      </trkpt>
      <trkpt lat="45.74258" lon="4.70943">
        <ele>301.99</ele>
        <time>2012-06-10T07:06:56Z</time>
      </trkpt>
      <trkpt lat="45.74258" lon="4.7089">
        <ele>302.95</ele>
        <time>2012-06-10T07:07:12Z</time>
      </trkpt>
      <trkpt lat="45.74256" lon="4.70801">
        <ele>303.43</ele>
        <time>2012-06-10T07:07:32Z</time>
      </trkpt>
      <trkpt lat="45.74261" lon="4.70723">
        <ele>302.47</ele>
        <time>2012-06-10T07:07:48Z</time>
      </trkpt>
      <trkpt lat="45.74268" lon="4.70679">
        <ele>301.99</ele>
        <time>2012-06-10T07:07:59Z</time>
      </trkpt>
      <trkpt lat="45.74261" lon="4.70673">
        <ele>302.47</ele>
        <time>2012-06-10T07:08:03Z</time>
      </trkpt>
      <trkpt lat="45.74216" lon="4.7068">
        <ele>301.99</ele>
        <time>2012-06-10T07:08:16Z</time>
      </trkpt>
      <trkpt lat="45.74174" lon="4.70694">
        <ele>300.07</ele>
        <time>2012-06-10T07:08:26Z</time>
      </trkpt>
      <trkpt lat="45.74158" lon="4.707">
        <ele>299.11</ele>
        <time>2012-06-10T07:08:30Z</time>
      </trkpt>
      <trkpt lat="45.74145" lon="4.70704">
        <ele>298.15</ele>
        <time>2012-06-10T07:08:33Z</time>
      </trkpt>
      <trkpt lat="45.74127" lon="4.7071">
        <ele>297.67</ele>
        <time>2012-06-10T07:08:37Z</time>
      </trkpt>
      <trkpt lat="45.74099" lon="4.7072">
        <ele>296.7</ele>
        <time>2012-06-10T07:08:43Z</time>
      </trkpt>
      <trkpt lat="45.7409" lon="4.70723">
        <ele>296.7</ele>
        <time>2012-06-10T07:08:45Z</time>
      </trkpt>
      <trkpt lat="45.7404" lon="4.70739">
        <ele>295.26</ele>
        <time>2012-06-10T07:08:57Z</time>
      </trkpt>
      <trkpt lat="45.74019" lon="4.70746">
        <ele>295.74</ele>
        <time>2012-06-10T07:09:02Z</time>
      </trkpt>
      <trkpt lat="45.74009" lon="4.70748">
        <ele>296.22</ele>
        <time>2012-06-10T07:09:04Z</time>
      </trkpt>
      <trkpt lat="45.73943" lon="4.70753">
        <ele>293.34</ele>
        <time>2012-06-10T07:09:19Z</time>
      </trkpt>
      <trkpt lat="45.7391" lon="4.70745">
        <ele>291.9</ele>
        <time>2012-06-10T07:09:26Z</time>
      </trkpt>
      <trkpt lat="45.73866" lon="4.70721">
        <ele>289.49</ele>
        <time>2012-06-10T07:09:36Z</time>
      </trkpt>
      <trkpt lat="45.73852" lon="4.70707">
        <ele>289.49</ele>
        <time>2012-06-10T07:09:39Z</time>
      </trkpt>
      <trkpt lat="45.73791" lon="4.70661">
        <ele>288.05</ele>
        <time>2012-06-10T07:09:53Z</time>
      </trkpt>
      <trkpt lat="45.73758" lon="4.70646">
        <ele>287.09</ele>
        <time>2012-06-10T07:10:01Z</time>
      </trkpt>
      <trkpt lat="45.73699" lon="4.70639">
        <ele>285.17</ele>
        <time>2012-06-10T07:10:16Z</time>
      </trkpt>
      <trkpt lat="45.73682" lon="4.70636">
        <ele>285.17</ele>
        <time>2012-06-10T07:10:24Z</time>
      </trkpt>
      <trkpt lat="45.7365" lon="4.70629">
        <ele>283.73</ele>
        <time>2012-06-10T07:10:36Z</time>
      </trkpt>
      <trkpt lat="45.73612" lon="4.7062">
        <ele>281.32</ele>
        <time>2012-06-10T07:10:49Z</time>
      </trkpt>
      <trkpt lat="45.7361" lon="4.70622">
        <ele>280.84</ele>
        <time>2012-06-10T07:10:50Z</time>
      </trkpt>
      <trkpt lat="45.7358" lon="4.70639">
        <ele>277</ele>
        <time>2012-06-10T07:11:02Z</time>
      </trkpt>
      <trkpt lat="45.7355" lon="4.70639">
        <ele>272.67</ele>
        <time>2012-06-10T07:11:12Z</time>
      </trkpt>
      <trkpt lat="45.73513" lon="4.70651">
        <ele>268.83</ele>
        <time>2012-06-10T07:11:24Z</time>
      </trkpt>
      <trkpt lat="45.73483" lon="4.70642">
        <ele>264.5</ele>
        <time>2012-06-10T07:11:35Z</time>
      </trkpt>
      <trkpt lat="45.73481" lon="4.70641">
        <ele>264.02</ele>
        <time>2012-06-10T07:11:36Z</time>
      </trkpt>
      <trkpt lat="45.73477" lon="4.70657">
        <ele>261.14</ele>
        <time>2012-06-10T07:11:44Z</time>
      </trkpt>
      <trkpt lat="45.73494" lon="4.70675">
        <ele>256.81</ele>
        <time>2012-06-10T07:11:57Z</time>
      </trkpt>
      <trkpt lat="45.73495" lon="4.70676">
        <ele>255.85</ele>
        <time>2012-06-10T07:12:00Z</time>
      </trkpt>
      <trkpt lat="45.73505" lon="4.70684">
        <ele>252.96</ele>
        <time>2012-06-10T07:12:06Z</time>
      </trkpt>
      <trkpt lat="45.73516" lon="4.70709">
        <ele>249.12</ele>
        <time>2012-06-10T07:12:13Z</time>
      </trkpt>
      <trkpt lat="45.7352" lon="4.70716">
        <ele>247.68</ele>
        <time>2012-06-10T07:12:16Z</time>
      </trkpt>
      <trkpt lat="45.73524" lon="4.70719">
        <ele>247.2</ele>
        <time>2012-06-10T07:12:30Z</time>
      </trkpt>
      <trkpt lat="45.73526" lon="4.7072">
        <ele>248.16</ele>
        <time>2012-06-10T07:12:48Z</time>
      </trkpt>
      <trkpt lat="45.73526" lon="4.7072">
        <ele>248.64</ele>
        <time>2012-06-10T07:13:03Z</time>
      </trkpt>
      <trkpt lat="45.73526" lon="4.70719">
        <ele>249.12</ele>
        <time>2012-06-10T07:13:29Z</time>
      </trkpt>
      <trkpt lat="45.73526" lon="4.7072">
        <ele>248.64</ele>
        <time>2012-06-10T07:13:47Z</time>
      </trkpt>
      <trkpt lat="45.73525" lon="4.7072">
        <ele>249.12</ele>
        <time>2012-06-10T07:14:07Z</time>
      </trkpt>
      <trkpt lat="45.73525" lon="4.70721">
        <ele>248.64</ele>
        <time>2012-06-10T07:14:15Z</time>
      </trkpt>
      <trkpt lat="45.73508" lon="4.70719">
        <ele>246.72</ele>
        <time>2012-06-10T07:14:24Z</time>
      </trkpt>
      <trkpt lat="45.73505" lon="4.70728">
        <ele>247.68</ele>
        <time>2012-06-10T07:14:35Z</time>
      </trkpt>
      <trkpt lat="45.73502" lon="4.70739">
        <ele>249.12</ele>
        <time>2012-06-10T07:14:54Z</time>
      </trkpt>
      <trkpt lat="45.73502" lon="4.70741">
        <ele>249.6</ele>
        <time>2012-06-10T07:14:55Z</time>
      </trkpt>
      <trkpt lat="45.73509" lon="4.70759">
        <ele>252.96</ele>
        <time>2012-06-10T07:15:02Z</time>
      </trkpt>
      <trkpt lat="45.73531" lon="4.70789">
        <ele>254.41</ele>
        <time>2012-06-10T07:15:16Z</time>
      </trkpt>
      <trkpt lat="45.73534" lon="4.7082">
        <ele>259.69</ele>
        <time>2012-06-10T07:15:29Z</time>
      </trkpt>
      <trkpt lat="45.73518" lon="4.70851">
        <ele>266.42</ele>
        <time>2012-06-10T07:15:43Z</time>
      </trkpt>
      <trkpt lat="45.73501" lon="4.70883">
        <ele>269.79</ele>
        <time>2012-06-10T07:15:59Z</time>
      </trkpt>
      <trkpt lat="45.73475" lon="4.709">
        <ele>276.52</ele>
        <time>2012-06-10T07:16:15Z</time>
      </trkpt>
      <trkpt lat="45.7344" lon="4.70903">
        <ele>277.48</ele>
        <time>2012-06-10T07:16:31Z</time>
      </trkpt>
      <trkpt lat="45.73398" lon="4.70906">
        <ele>276.52</ele>
        <time>2012-06-10T07:16:50Z</time>
      </trkpt>
      <trkpt lat="45.73341" lon="4.709">
        <ele>274.11</ele>
        <time>2012-06-10T07:17:14Z</time>
      </trkpt>
      <trkpt lat="45.73301" lon="4.70893">
        <ele>271.71</ele>
        <time>2012-06-10T07:17:31Z</time>
      </trkpt>
      <trkpt lat="45.73287" lon="4.7089">
        <ele>272.19</ele>
        <time>2012-06-10T07:17:39Z</time>
      </trkpt>
      <trkpt lat="45.73285" lon="4.70894">
        <ele>274.11</ele>
        <time>2012-06-10T07:17:48Z</time>
      </trkpt>
      <trkpt lat="45.73286" lon="4.70889">
        <ele>274.59</ele>
        <time>2012-06-10T07:17:56Z</time>
      </trkpt>
      <trkpt lat="45.73286" lon="4.70888">
        <ele>275.07</ele>
        <time>2012-06-10T07:18:23Z</time>
      </trkpt>
      <trkpt lat="45.73286" lon="4.70888">
        <ele>275.07</ele>
        <time>2012-06-10T07:18:53Z</time>
      </trkpt>
      <trkpt lat="45.73286" lon="4.70888">
        <ele>275.56</ele>
        <time>2012-06-10T07:19:19Z</time>
      </trkpt>
      <trkpt lat="45.73285" lon="4.70887">
        <ele>276.04</ele>
        <time>2012-06-10T07:19:39Z</time>
      </trkpt>
      <trkpt lat="45.73285" lon="4.70887">
        <ele>275.56</ele>
        <time>2012-06-10T07:19:59Z</time>
      </trkpt>
      <trkpt lat="45.73285" lon="4.70887">
        <ele>276.04</ele>
        <time>2012-06-10T07:20:16Z</time>
      </trkpt>
      <trkpt lat="45.73285" lon="4.70888">
        <ele>276.04</ele>
        <time>2012-06-10T07:20:39Z</time>
      </trkpt>
      <trkpt lat="45.73281" lon="4.70887">
        <ele>276.04</ele>
        <time>2012-06-10T07:20:43Z</time>
      </trkpt>
      <trkpt lat="45.73247" lon="4.70873">
        <ele>274.11</ele>
        <time>2012-06-10T07:20:59Z</time>
      </trkpt>
      <trkpt lat="45.73209" lon="4.70854">
        <ele>272.67</ele>
        <time>2012-06-10T07:21:15Z</time>
      </trkpt>
      <trkpt lat="45.73162" lon="4.70842">
        <ele>272.67</ele>
        <time>2012-06-10T07:21:31Z</time>
      </trkpt>
      <trkpt lat="45.73103" lon="4.70812">
        <ele>274.59</ele>
        <time>2012-06-10T07:21:50Z</time>
      </trkpt>
      <trkpt lat="45.73055" lon="4.70776">
        <ele>275.07</ele>
        <time>2012-06-10T07:22:06Z</time>
      </trkpt>
      <trkpt lat="45.7301" lon="4.70752">
        <ele>275.07</ele>
        <time>2012-06-10T07:22:20Z</time>
      </trkpt>
      <trkpt lat="45.72969" lon="4.7074">
        <ele>275.07</ele>
        <time>2012-06-10T07:22:33Z</time>
      </trkpt>
      <trkpt lat="45.72928" lon="4.70704">
        <ele>275.56</ele>
        <time>2012-06-10T07:22:47Z</time>
      </trkpt>
      <trkpt lat="45.72884" lon="4.70715">
        <ele>277</ele>
        <time>2012-06-10T07:23:00Z</time>
      </trkpt>
      <trkpt lat="45.72838" lon="4.70722">
        <ele>277.96</ele>
        <time>2012-06-10T07:23:13Z</time>
      </trkpt>
      <trkpt lat="45.72787" lon="4.70698">
        <ele>278.44</ele>
        <time>2012-06-10T07:23:28Z</time>
      </trkpt>
      <trkpt lat="45.72777" lon="4.70653">
        <ele>279.4</ele>
        <time>2012-06-10T07:23:38Z</time>
      </trkpt>
      <trkpt lat="45.7276" lon="4.70576">
        <ele>283.25</ele>
        <time>2012-06-10T07:23:54Z</time>
      </trkpt>
      <trkpt lat="45.72734" lon="4.70492">
        <ele>284.69</ele>
        <time>2012-06-10T07:24:11Z</time>
      </trkpt>
      <trkpt lat="45.72704" lon="4.70418">
        <ele>285.65</ele>
        <time>2012-06-10T07:24:27Z</time>
      </trkpt>
      <trkpt lat="45.72661" lon="4.70402">
        <ele>285.65</ele>
        <time>2012-06-10T07:24:39Z</time>
      </trkpt>
      <trkpt lat="45.72613" lon="4.70378">
        <ele>286.61</ele>
        <time>2012-06-10T07:24:54Z</time>
      </trkpt>
      <trkpt lat="45.72579" lon="4.70355">
        <ele>286.13</ele>
        <time>2012-06-10T07:25:05Z</time>
      </trkpt>
      <trkpt lat="45.72496" lon="4.70371">
        <ele>285.17</ele>
        <time>2012-06-10T07:25:25Z</time>
      </trkpt>
      <trkpt lat="45.72452" lon="4.7039">
        <ele>284.69</ele>
        <time>2012-06-10T07:25:38Z</time>
      </trkpt>
      <trkpt lat="45.72404" lon="4.70406">
        <ele>286.61</ele>
        <time>2012-06-10T07:25:51Z</time>
      </trkpt>
      <trkpt lat="45.72368" lon="4.70433">
        <ele>287.09</ele>
        <time>2012-06-10T07:26:03Z</time>
      </trkpt>
      <trkpt lat="45.7236" lon="4.70465">
        <ele>286.61</ele>
        <time>2012-06-10T07:26:09Z</time>
      </trkpt>
      <trkpt lat="45.72348" lon="4.70481">
        <ele>286.61</ele>
        <time>2012-06-10T07:26:13Z</time>
      </trkpt>
      <trkpt lat="45.72322" lon="4.70514">
        <ele>286.61</ele>
        <time>2012-06-10T07:26:22Z</time>
      </trkpt>
      <trkpt lat="45.72305" lon="4.70522">
        <ele>286.61</ele>
        <time>2012-06-10T07:26:27Z</time>
      </trkpt>
      <trkpt lat="45.72241" lon="4.70477">
        <ele>285.17</ele>
        <time>2012-06-10T07:26:46Z</time>
      </trkpt>
      <trkpt lat="45.72189" lon="4.7044">
        <ele>285.65</ele>
        <time>2012-06-10T07:27:02Z</time>
      </trkpt>
      <trkpt lat="45.72133" lon="4.704">
        <ele>289.01</ele>
        <time>2012-06-10T07:27:20Z</time>
      </trkpt>
      <trkpt lat="45.72123" lon="4.70391">
        <ele>289.97</ele>
        <time>2012-06-10T07:27:24Z</time>
      </trkpt>
      <trkpt lat="45.72123" lon="4.70374">
        <ele>289.97</ele>
        <time>2012-06-10T07:27:28Z</time>
      </trkpt>
      <trkpt lat="45.72143" lon="4.70277">
        <ele>292.38</ele>
        <time>2012-06-10T07:27:48Z</time>
      </trkpt>
      <trkpt lat="45.72167" lon="4.70151">
        <ele>293.82</ele>
        <time>2012-06-10T07:28:14Z</time>
      </trkpt>
      <trkpt lat="45.72186" lon="4.70047">
        <ele>295.74</ele>
        <time>2012-06-10T07:28:35Z</time>
      </trkpt>
      <trkpt lat="45.72204" lon="4.69961">
        <ele>297.18</ele>
        <time>2012-06-10T07:28:52Z</time>
      </trkpt>
      <trkpt lat="45.72227" lon="4.69879">
        <ele>301.03</ele>
        <time>2012-06-10T07:29:10Z</time>
      </trkpt>
      <trkpt lat="45.72221" lon="4.69843">
        <ele>302.95</ele>
        <time>2012-06-10T07:29:20Z</time>
      </trkpt>
      <trkpt lat="45.7222" lon="4.69796">
        <ele>303.91</ele>
        <time>2012-06-10T07:29:32Z</time>
      </trkpt>
      <trkpt lat="45.72192" lon="4.69748">
        <ele>305.84</ele>
        <time>2012-06-10T07:29:46Z</time>
      </trkpt>
      <trkpt lat="45.72168" lon="4.69695">
        <ele>309.68</ele>
        <time>2012-06-10T07:30:03Z</time>
      </trkpt>
      <trkpt lat="45.72143" lon="4.69641">
        <ele>313.53</ele>
        <time>2012-06-10T07:30:21Z</time>
      </trkpt>
      <trkpt lat="45.72129" lon="4.69605">
        <ele>315.93</ele>
        <time>2012-06-10T07:30:37Z</time>
      </trkpt>
      <trkpt lat="45.72127" lon="4.69598">
        <ele>316.41</ele>
        <time>2012-06-10T07:30:41Z</time>
      </trkpt>
      <trkpt lat="45.72107" lon="4.69555">
        <ele>318.33</ele>
        <time>2012-06-10T07:31:00Z</time>
      </trkpt>
      <trkpt lat="45.72087" lon="4.6952">
        <ele>322.18</ele>
        <time>2012-06-10T07:31:16Z</time>
      </trkpt>
      <trkpt lat="45.72068" lon="4.69478">
        <ele>324.58</ele>
        <time>2012-06-10T07:31:33Z</time>
      </trkpt>
      <trkpt lat="45.72056" lon="4.69429">
        <ele>327.95</ele>
        <time>2012-06-10T07:31:50Z</time>
      </trkpt>
      <trkpt lat="45.72054" lon="4.69385">
        <ele>328.91</ele>
        <time>2012-06-10T07:32:04Z</time>
      </trkpt>
      <trkpt lat="45.72074" lon="4.69366">
        <ele>328.91</ele>
        <time>2012-06-10T07:32:15Z</time>
      </trkpt>
      <trkpt lat="45.72083" lon="4.69315">
        <ele>326.99</ele>
        <time>2012-06-10T07:32:29Z</time>
      </trkpt>
      <trkpt lat="45.72105" lon="4.69279">
        <ele>330.83</ele>
        <time>2012-06-10T07:32:40Z</time>
      </trkpt>
      <trkpt lat="45.72119" lon="4.69233">
        <ele>331.31</ele>
        <time>2012-06-10T07:32:53Z</time>
      </trkpt>
      <trkpt lat="45.72123" lon="4.69162">
        <ele>332.75</ele>
        <time>2012-06-10T07:33:11Z</time>
      </trkpt>
      <trkpt lat="45.72127" lon="4.6909">
        <ele>334.68</ele>
        <time>2012-06-10T07:33:30Z</time>
      </trkpt>
      <trkpt lat="45.72133" lon="4.6904">
        <ele>336.12</ele>
        <time>2012-06-10T07:33:45Z</time>
      </trkpt>
      <trkpt lat="45.72102" lon="4.69013">
        <ele>335.16</ele>
        <time>2012-06-10T07:33:58Z</time>
      </trkpt>
      <trkpt lat="45.72088" lon="4.69001">
        <ele>335.16</ele>
        <time>2012-06-10T07:34:04Z</time>
      </trkpt>
      <trkpt lat="45.72089" lon="4.6898">
        <ele>335.64</ele>
        <time>2012-06-10T07:34:10Z</time>
      </trkpt>
      <trkpt lat="45.72115" lon="4.68913">
        <ele>335.64</ele>
        <time>2012-06-10T07:34:28Z</time>
      </trkpt>
      <trkpt lat="45.72144" lon="4.68849">
        <ele>336.6</ele>
        <time>2012-06-10T07:34:46Z</time>
      </trkpt>
      <trkpt lat="45.72161" lon="4.68794">
        <ele>336.6</ele>
        <time>2012-06-10T07:34:59Z</time>
      </trkpt>
      <trkpt lat="45.72162" lon="4.68789">
        <ele>336.6</ele>
        <time>2012-06-10T07:35:00Z</time>
      </trkpt>
      <trkpt lat="45.72154" lon="4.68775">
        <ele>336.12</ele>
        <time>2012-06-10T07:35:04Z</time>
      </trkpt>
      <trkpt lat="45.72137" lon="4.68754">
        <ele>333.71</ele>
        <time>2012-06-10T07:35:09Z</time>
      </trkpt>
      <trkpt lat="45.72129" lon="4.68732">
        <ele>331.79</ele>
        <time>2012-06-10T07:35:13Z</time>
      </trkpt>
      <trkpt lat="45.72109" lon="4.68642">
        <ele>330.83</ele>
        <time>2012-06-10T07:35:29Z</time>
      </trkpt>
      <trkpt lat="45.72078" lon="4.68551">
        <ele>328.91</ele>
        <time>2012-06-10T07:35:44Z</time>
      </trkpt>
      <trkpt lat="45.72066" lon="4.68476">
        <ele>329.39</ele>
        <time>2012-06-10T07:35:56Z</time>
      </trkpt>
      <trkpt lat="45.72044" lon="4.68371">
        <ele>327.47</ele>
        <time>2012-06-10T07:36:14Z</time>
      </trkpt>
      <trkpt lat="45.72023" lon="4.68274">
        <ele>326.99</ele>
        <time>2012-06-10T07:36:31Z</time>
      </trkpt>
      <trkpt lat="45.72004" lon="4.68191">
        <ele>328.43</ele>
        <time>2012-06-10T07:36:49Z</time>
      </trkpt>
      <trkpt lat="45.72004" lon="4.68183">
        <ele>330.83</ele>
        <time>2012-06-10T07:37:03Z</time>
      </trkpt>
      <trkpt lat="45.72004" lon="4.68184">
        <ele>331.31</ele>
        <time>2012-06-10T07:37:21Z</time>
      </trkpt>
      <trkpt lat="45.7199" lon="4.68131">
        <ele>330.35</ele>
        <time>2012-06-10T07:37:37Z</time>
      </trkpt>
      <trkpt lat="45.71979" lon="4.68087">
        <ele>332.27</ele>
        <time>2012-06-10T07:37:49Z</time>
      </trkpt>
      <trkpt lat="45.71973" lon="4.68057">
        <ele>331.79</ele>
        <time>2012-06-10T07:38:03Z</time>
      </trkpt>
      <trkpt lat="45.71958" lon="4.68003">
        <ele>332.27</ele>
        <time>2012-06-10T07:38:22Z</time>
      </trkpt>
      <trkpt lat="45.71943" lon="4.67941">
        <ele>331.31</ele>
        <time>2012-06-10T07:38:40Z</time>
      </trkpt>
      <trkpt lat="45.71935" lon="4.6789">
        <ele>334.2</ele>
        <time>2012-06-10T07:38:55Z</time>
      </trkpt>
      <trkpt lat="45.71924" lon="4.67834">
        <ele>339</ele>
        <time>2012-06-10T07:39:10Z</time>
      </trkpt>
      <trkpt lat="45.71916" lon="4.67787">
        <ele>341.41</ele>
        <time>2012-06-10T07:39:24Z</time>
      </trkpt>
      <trkpt lat="45.71908" lon="4.67714">
        <ele>347.17</ele>
        <time>2012-06-10T07:39:43Z</time>
      </trkpt>
      <trkpt lat="45.71899" lon="4.67655">
        <ele>349.1</ele>
        <time>2012-06-10T07:39:59Z</time>
      </trkpt>
      <trkpt lat="45.71881" lon="4.67585">
        <ele>349.58</ele>
        <time>2012-06-10T07:40:19Z</time>
      </trkpt>
      <trkpt lat="45.71858" lon="4.67534">
        <ele>347.17</ele>
        <time>2012-06-10T07:40:33Z</time>
      </trkpt>
      <trkpt lat="45.71807" lon="4.67457">
        <ele>347.65</ele>
        <time>2012-06-10T07:40:52Z</time>
      </trkpt>
      <trkpt lat="45.71766" lon="4.67386">
        <ele>347.65</ele>
        <time>2012-06-10T07:41:10Z</time>
      </trkpt>
      <trkpt lat="45.71753" lon="4.67308">
        <ele>350.06</ele>
        <time>2012-06-10T07:41:27Z</time>
      </trkpt>
      <trkpt lat="45.71752" lon="4.67248">
        <ele>355.34</ele>
        <time>2012-06-10T07:41:42Z</time>
      </trkpt>
      <trkpt lat="45.71751" lon="4.67191">
        <ele>359.67</ele>
        <time>2012-06-10T07:41:58Z</time>
      </trkpt>
      <trkpt lat="45.71746" lon="4.67147">
        <ele>361.11</ele>
        <time>2012-06-10T07:42:14Z</time>
      </trkpt>
      <trkpt lat="45.71746" lon="4.6714">
        <ele>361.59</ele>
        <time>2012-06-10T07:42:18Z</time>
      </trkpt>
      <trkpt lat="45.71742" lon="4.67135">
        <ele>363.04</ele>
        <time>2012-06-10T07:42:30Z</time>
      </trkpt>
      <trkpt lat="45.71741" lon="4.67138">
        <ele>363.04</ele>
        <time>2012-06-10T07:42:32Z</time>
      </trkpt>
      <trkpt lat="45.71746" lon="4.6714">
        <ele>362.55</ele>
        <time>2012-06-10T07:42:37Z</time>
      </trkpt>
      <trkpt lat="45.71744" lon="4.67131">
        <ele>363.52</ele>
        <time>2012-06-10T07:42:43Z</time>
      </trkpt>
      <trkpt lat="45.71725" lon="4.67116">
        <ele>365.92</ele>
        <time>2012-06-10T07:42:59Z</time>
      </trkpt>
      <trkpt lat="45.71702" lon="4.67103">
        <ele>367.84</ele>
        <time>2012-06-10T07:43:13Z</time>
      </trkpt>
      <trkpt lat="45.71659" lon="4.67078">
        <ele>369.76</ele>
        <time>2012-06-10T07:43:34Z</time>
      </trkpt>
      <trkpt lat="45.71621" lon="4.67059">
        <ele>369.28</ele>
        <time>2012-06-10T07:43:48Z</time>
      </trkpt>
      <trkpt lat="45.71573" lon="4.67059">
        <ele>369.76</ele>
        <time>2012-06-10T07:44:04Z</time>
      </trkpt>
      <trkpt lat="45.7153" lon="4.67075">
        <ele>371.69</ele>
        <time>2012-06-10T07:44:20Z</time>
      </trkpt>
      <trkpt lat="45.71509" lon="4.67077">
        <ele>372.17</ele>
        <time>2012-06-10T07:44:28Z</time>
      </trkpt>
      <trkpt lat="45.715" lon="4.6706">
        <ele>371.21</ele>
        <time>2012-06-10T07:44:34Z</time>
      </trkpt>
      <trkpt lat="45.71482" lon="4.6701">
        <ele>371.21</ele>
        <time>2012-06-10T07:44:49Z</time>
      </trkpt>
      <trkpt lat="45.71465" lon="4.66948">
        <ele>374.09</ele>
        <time>2012-06-10T07:45:06Z</time>
      </trkpt>
      <trkpt lat="45.71473" lon="4.66887">
        <ele>378.9</ele>
        <time>2012-06-10T07:45:23Z</time>
      </trkpt>
      <trkpt lat="45.71481" lon="4.66838">
        <ele>382.74</ele>
        <time>2012-06-10T07:45:39Z</time>
      </trkpt>
      <trkpt lat="45.71482" lon="4.66782">
        <ele>387.07</ele>
        <time>2012-06-10T07:45:58Z</time>
      </trkpt>
      <trkpt lat="45.71484" lon="4.66743">
        <ele>390.91</ele>
        <time>2012-06-10T07:46:13Z</time>
      </trkpt>
      <trkpt lat="45.7148" lon="4.66706">
        <ele>395.72</ele>
        <time>2012-06-10T07:46:28Z</time>
      </trkpt>
      <trkpt lat="45.71451" lon="4.66704">
        <ele>399.57</ele>
        <time>2012-06-10T07:46:45Z</time>
      </trkpt>
      <trkpt lat="45.7142" lon="4.66706">
        <ele>402.45</ele>
        <time>2012-06-10T07:47:02Z</time>
      </trkpt>
      <trkpt lat="45.71395" lon="4.66701">
        <ele>403.41</ele>
        <time>2012-06-10T07:47:16Z</time>
      </trkpt>
      <trkpt lat="45.71358" lon="4.66679">
        <ele>408.22</ele>
        <time>2012-06-10T07:47:37Z</time>
      </trkpt>
      <trkpt lat="45.71339" lon="4.66651">
        <ele>411.58</ele>
        <time>2012-06-10T07:47:53Z</time>
      </trkpt>
      <trkpt lat="45.7133" lon="4.66615">
        <ele>414.95</ele>
        <time>2012-06-10T07:48:09Z</time>
      </trkpt>
      <trkpt lat="45.71338" lon="4.66583">
        <ele>417.83</ele>
        <time>2012-06-10T07:48:25Z</time>
      </trkpt>
      <trkpt lat="45.71349" lon="4.66567">
        <ele>418.31</ele>
        <time>2012-06-10T07:48:41Z</time>
      </trkpt>
      <trkpt lat="45.71349" lon="4.66567">
        <ele>417.83</ele>
        <time>2012-06-10T07:49:06Z</time>
      </trkpt>
      <trkpt lat="45.7135" lon="4.66567">
        <ele>417.83</ele>
        <time>2012-06-10T07:49:36Z</time>
      </trkpt>
      <trkpt lat="45.7135" lon="4.66568">
        <ele>419.27</ele>
        <time>2012-06-10T07:50:02Z</time>
      </trkpt>
      <trkpt lat="45.71354" lon="4.66568">
        <ele>418.79</ele>
        <time>2012-06-10T07:50:29Z</time>
      </trkpt>
      <trkpt lat="45.71354" lon="4.66569">
        <ele>417.83</ele>
        <time>2012-06-10T07:50:55Z</time>
      </trkpt>
      <trkpt lat="45.71356" lon="4.6657">
        <ele>418.79</ele>
        <time>2012-06-10T07:51:33Z</time>
      </trkpt>
      <trkpt lat="45.71356" lon="4.66568">
        <ele>419.27</ele>
        <time>2012-06-10T07:52:10Z</time>
      </trkpt>
      <trkpt lat="45.71355" lon="4.66569">
        <ele>421.19</ele>
        <time>2012-06-10T07:52:52Z</time>
      </trkpt>
      <trkpt lat="45.71355" lon="4.66569">
        <ele>419.75</ele>
        <time>2012-06-10T07:53:30Z</time>
      </trkpt>
      <trkpt lat="45.71356" lon="4.66569">
        <ele>419.75</ele>
        <time>2012-06-10T07:54:14Z</time>
      </trkpt>
      <trkpt lat="45.71357" lon="4.66569">
        <ele>418.79</ele>
        <time>2012-06-10T07:54:58Z</time>
      </trkpt>
      <trkpt lat="45.71358" lon="4.66569">
        <ele>418.31</ele>
        <time>2012-06-10T07:55:47Z</time>
      </trkpt>
      <trkpt lat="45.71358" lon="4.66569">
        <ele>418.79</ele>
        <time>2012-06-10T07:56:39Z</time>
      </trkpt>
      <trkpt lat="45.71358" lon="4.66569">
        <ele>419.75</ele>
        <time>2012-06-10T07:57:19Z</time>
      </trkpt>
      <trkpt lat="45.71357" lon="4.66568">
        <ele>420.23</ele>
        <time>2012-06-10T07:58:01Z</time>
      </trkpt>
      <trkpt lat="45.71356" lon="4.66569">
        <ele>421.68</ele>
        <time>2012-06-10T07:58:39Z</time>
      </trkpt>
      <trkpt lat="45.71355" lon="4.6657">
        <ele>421.68</ele>
        <time>2012-06-10T07:59:26Z</time>
      </trkpt>
      <trkpt lat="45.71355" lon="4.66569">
        <ele>421.68</ele>
        <time>2012-06-10T08:00:08Z</time>
      </trkpt>
      <trkpt lat="45.71356" lon="4.6657">
        <ele>422.16</ele>
        <time>2012-06-10T08:00:53Z</time>
      </trkpt>
      <trkpt lat="45.71355" lon="4.66568">
        <ele>422.64</ele>
        <time>2012-06-10T08:01:36Z</time>
      </trkpt>
      <trkpt lat="45.71355" lon="4.6657">
        <ele>422.64</ele>
        <time>2012-06-10T08:02:17Z</time>
      </trkpt>
      <trkpt lat="45.71355" lon="4.6657">
        <ele>422.64</ele>
        <time>2012-06-10T08:02:46Z</time>
      </trkpt>
      <trkpt lat="45.71357" lon="4.66568">
        <ele>422.64</ele>
        <time>2012-06-10T08:02:58Z</time>
      </trkpt>
      <trkpt lat="45.71358" lon="4.66568">
        <ele>422.64</ele>
        <time>2012-06-10T08:03:09Z</time>
      </trkpt>
      <trkpt lat="45.71385" lon="4.66555">
        <ele>421.19</ele>
        <time>2012-06-10T08:03:25Z</time>
      </trkpt>
      <trkpt lat="45.71417" lon="4.66534">
        <ele>421.68</ele>
        <time>2012-06-10T08:03:39Z</time>
      </trkpt>
      <trkpt lat="45.71449" lon="4.66513">
        <ele>423.12</ele>
        <time>2012-06-10T08:03:54Z</time>
      </trkpt>
      <trkpt lat="45.71482" lon="4.66495">
        <ele>424.08</ele>
        <time>2012-06-10T08:04:12Z</time>
      </trkpt>
      <trkpt lat="45.71485" lon="4.66493">
        <ele>424.56</ele>
        <time>2012-06-10T08:04:15Z</time>
      </trkpt>
      <trkpt lat="45.71488" lon="4.66492">
        <ele>424.56</ele>
        <time>2012-06-10T08:04:18Z</time>
      </trkpt>
      <trkpt lat="45.71509" lon="4.66474">
        <ele>426</ele>
        <time>2012-06-10T08:04:34Z</time>
      </trkpt>
      <trkpt lat="45.71525" lon="4.66459">
        <ele>426.96</ele>
        <time>2012-06-10T08:04:47Z</time>
      </trkpt>
      <trkpt lat="45.71547" lon="4.66437">
        <ele>429.37</ele>
        <time>2012-06-10T08:05:02Z</time>
      </trkpt>
      <trkpt lat="45.71566" lon="4.66412">
        <ele>431.77</ele>
        <time>2012-06-10T08:05:16Z</time>
      </trkpt>
      <trkpt lat="45.71583" lon="4.66385">
        <ele>436.1</ele>
        <time>2012-06-10T08:05:30Z</time>
      </trkpt>
      <trkpt lat="45.71598" lon="4.66357">
        <ele>438.02</ele>
        <time>2012-06-10T08:05:43Z</time>
      </trkpt>
      <trkpt lat="45.71616" lon="4.6632">
        <ele>438.98</ele>
        <time>2012-06-10T08:05:59Z</time>
      </trkpt>
      <trkpt lat="45.71626" lon="4.66303">
        <ele>439.46</ele>
        <time>2012-06-10T08:06:07Z</time>
      </trkpt>
      <trkpt lat="45.7163" lon="4.66294">
        <ele>439.46</ele>
        <time>2012-06-10T08:06:11Z</time>
      </trkpt>
      <trkpt lat="45.71644" lon="4.66261">
        <ele>441.38</ele>
        <time>2012-06-10T08:06:26Z</time>
      </trkpt>
      <trkpt lat="45.71651" lon="4.66234">
        <ele>442.34</ele>
        <time>2012-06-10T08:06:37Z</time>
      </trkpt>
      <trkpt lat="45.71651" lon="4.66226">
        <ele>441.86</ele>
        <time>2012-06-10T08:06:42Z</time>
      </trkpt>
      <trkpt lat="45.71657" lon="4.66201">
        <ele>440.42</ele>
        <time>2012-06-10T08:06:56Z</time>
      </trkpt>
      <trkpt lat="45.71657" lon="4.66198">
        <ele>441.38</ele>
        <time>2012-06-10T08:07:11Z</time>
      </trkpt>
      <trkpt lat="45.71657" lon="4.66198">
        <ele>441.38</ele>
        <time>2012-06-10T08:07:36Z</time>
      </trkpt>
      <trkpt lat="45.71657" lon="4.66197">
        <ele>440.42</ele>
        <time>2012-06-10T08:08:02Z</time>
      </trkpt>
      <trkpt lat="45.71657" lon="4.66198">
        <ele>440.9</ele>
        <time>2012-06-10T08:08:26Z</time>
      </trkpt>
      <trkpt lat="45.71657" lon="4.66198">
        <ele>442.34</ele>
        <time>2012-06-10T08:08:55Z</time>
      </trkpt>
      <trkpt lat="45.71655" lon="4.66193">
        <ele>442.82</ele>
        <time>2012-06-10T08:09:05Z</time>
      </trkpt>
      <trkpt lat="45.71659" lon="4.66205">
        <ele>441.38</ele>
        <time>2012-06-10T08:09:13Z</time>
      </trkpt>
      <trkpt lat="45.71658" lon="4.66199">
        <ele>440.9</ele>
        <time>2012-06-10T08:09:16Z</time>
      </trkpt>
      <trkpt lat="45.71639" lon="4.66172">
        <ele>442.82</ele>
        <time>2012-06-10T08:09:31Z</time>
      </trkpt>
      <trkpt lat="45.71622" lon="4.66147">
        <ele>444.27</ele>
        <time>2012-06-10T08:09:46Z</time>
      </trkpt>
      <trkpt lat="45.71605" lon="4.66118">
        <ele>446.19</ele>
        <time>2012-06-10T08:10:04Z</time>
      </trkpt>
      <trkpt lat="45.71591" lon="4.66094">
        <ele>448.11</ele>
        <time>2012-06-10T08:10:20Z</time>
      </trkpt>
      <trkpt lat="45.71579" lon="4.66073">
        <ele>450.52</ele>
        <time>2012-06-10T08:10:34Z</time>
      </trkpt>
      <trkpt lat="45.71575" lon="4.66068">
        <ele>451.48</ele>
        <time>2012-06-10T08:10:38Z</time>
      </trkpt>
      <trkpt lat="45.71557" lon="4.66049">
        <ele>454.84</ele>
        <time>2012-06-10T08:10:54Z</time>
      </trkpt>
      <trkpt lat="45.71552" lon="4.66044">
        <ele>455.8</ele>
        <time>2012-06-10T08:10:59Z</time>
      </trkpt>
      <trkpt lat="45.71546" lon="4.66039">
        <ele>456.76</ele>
        <time>2012-06-10T08:11:05Z</time>
      </trkpt>
      <trkpt lat="45.71537" lon="4.66031">
        <ele>458.69</ele>
        <time>2012-06-10T08:11:13Z</time>
      </trkpt>
      <trkpt lat="45.71523" lon="4.66022">
        <ele>461.09</ele>
        <time>2012-06-10T08:11:26Z</time>
      </trkpt>
      <trkpt lat="45.71518" lon="4.66017">
        <ele>462.05</ele>
        <time>2012-06-10T08:11:31Z</time>
      </trkpt>
      <trkpt lat="45.71507" lon="4.66005">
        <ele>463.97</ele>
        <time>2012-06-10T08:11:48Z</time>
      </trkpt>
      <trkpt lat="45.71503" lon="4.66">
        <ele>464.45</ele>
        <time>2012-06-10T08:12:00Z</time>
      </trkpt>
      <trkpt lat="45.71497" lon="4.65994">
        <ele>464.93</ele>
        <time>2012-06-10T08:12:11Z</time>
      </trkpt>
      <trkpt lat="45.71479" lon="4.65978">
        <ele>466.86</ele>
        <time>2012-06-10T08:12:26Z</time>
      </trkpt>
      <trkpt lat="45.71474" lon="4.65973">
        <ele>467.82</ele>
        <time>2012-06-10T08:12:32Z</time>
      </trkpt>
      <trkpt lat="45.71465" lon="4.65965">
        <ele>469.26</ele>
        <time>2012-06-10T08:12:41Z</time>
      </trkpt>
      <trkpt lat="45.71446" lon="4.65949">
        <ele>472.14</ele>
        <time>2012-06-10T08:12:58Z</time>
      </trkpt>
      <trkpt lat="45.71428" lon="4.65936">
        <ele>475.99</ele>
        <time>2012-06-10T08:13:14Z</time>
      </trkpt>
      <trkpt lat="45.71409" lon="4.65921">
        <ele>479.35</ele>
        <time>2012-06-10T08:13:30Z</time>
      </trkpt>
      <trkpt lat="45.71393" lon="4.65908">
        <ele>481.76</ele>
        <time>2012-06-10T08:13:45Z</time>
      </trkpt>
      <trkpt lat="45.71375" lon="4.65894">
        <ele>484.64</ele>
        <time>2012-06-10T08:14:02Z</time>
      </trkpt>
      <trkpt lat="45.71362" lon="4.65883">
        <ele>486.56</ele>
        <time>2012-06-10T08:14:16Z</time>
      </trkpt>
      <trkpt lat="45.71358" lon="4.65879">
        <ele>487.05</ele>
        <time>2012-06-10T08:14:30Z</time>
      </trkpt>
      <trkpt lat="45.71358" lon="4.65878">
        <ele>488.01</ele>
        <time>2012-06-10T08:14:52Z</time>
      </trkpt>
      <trkpt lat="45.71358" lon="4.65877">
        <ele>488.97</ele>
        <time>2012-06-10T08:15:12Z</time>
      </trkpt>
      <trkpt lat="45.71355" lon="4.65874">
        <ele>489.93</ele>
        <time>2012-06-10T08:15:34Z</time>
      </trkpt>
      <trkpt lat="45.71347" lon="4.65863">
        <ele>489.93</ele>
        <time>2012-06-10T08:15:48Z</time>
      </trkpt>
      <trkpt lat="45.71336" lon="4.65848">
        <ele>490.89</ele>
        <time>2012-06-10T08:16:05Z</time>
      </trkpt>
      <trkpt lat="45.71324" lon="4.65833">
        <ele>492.33</ele>
        <time>2012-06-10T08:16:21Z</time>
      </trkpt>
      <trkpt lat="45.71314" lon="4.6582">
        <ele>494.26</ele>
        <time>2012-06-10T08:16:35Z</time>
      </trkpt>
      <trkpt lat="45.71311" lon="4.65817">
        <ele>494.74</ele>
        <time>2012-06-10T08:16:38Z</time>
      </trkpt>
      <trkpt lat="45.71304" lon="4.65808">
        <ele>496.18</ele>
        <time>2012-06-10T08:16:47Z</time>
      </trkpt>
      <trkpt lat="45.7129" lon="4.65799">
        <ele>499.06</ele>
        <time>2012-06-10T08:17:04Z</time>
      </trkpt>
      <trkpt lat="45.71277" lon="4.65793">
        <ele>502.91</ele>
        <time>2012-06-10T08:17:19Z</time>
      </trkpt>
      <trkpt lat="45.71266" lon="4.65786">
        <ele>509.16</ele>
        <time>2012-06-10T08:17:35Z</time>
      </trkpt>
      <trkpt lat="45.71255" lon="4.65779">
        <ele>513.48</ele>
        <time>2012-06-10T08:17:50Z</time>
      </trkpt>
      <trkpt lat="45.71254" lon="4.65778">
        <ele>513</ele>
        <time>2012-06-10T08:18:09Z</time>
      </trkpt>
      <trkpt lat="45.71254" lon="4.65778">
        <ele>511.56</ele>
        <time>2012-06-10T08:18:31Z</time>
      </trkpt>
      <trkpt lat="45.71251" lon="4.65774">
        <ele>512.04</ele>
        <time>2012-06-10T08:18:39Z</time>
      </trkpt>
      <trkpt lat="45.71238" lon="4.65751">
        <ele>515.4</ele>
        <time>2012-06-10T08:18:54Z</time>
      </trkpt>
      <trkpt lat="45.71229" lon="4.65728">
        <ele>519.25</ele>
        <time>2012-06-10T08:19:08Z</time>
      </trkpt>
      <trkpt lat="45.71218" lon="4.65704">
        <ele>521.17</ele>
        <time>2012-06-10T08:19:23Z</time>
      </trkpt>
      <trkpt lat="45.71214" lon="4.65696">
        <ele>522.13</ele>
        <time>2012-06-10T08:19:28Z</time>
      </trkpt>
      <trkpt lat="45.71205" lon="4.6567">
        <ele>522.13</ele>
        <time>2012-06-10T08:19:42Z</time>
      </trkpt>
      <trkpt lat="45.7119" lon="4.65641">
        <ele>518.77</ele>
        <time>2012-06-10T08:19:57Z</time>
      </trkpt>
      <trkpt lat="45.71171" lon="4.65603">
        <ele>515.88</ele>
        <time>2012-06-10T08:20:11Z</time>
      </trkpt>
      <trkpt lat="45.71143" lon="4.65561">
        <ele>517.81</ele>
        <time>2012-06-10T08:20:25Z</time>
      </trkpt>
      <trkpt lat="45.71119" lon="4.65524">
        <ele>519.73</ele>
        <time>2012-06-10T08:20:40Z</time>
      </trkpt>
      <trkpt lat="45.71096" lon="4.65487">
        <ele>523.58</ele>
        <time>2012-06-10T08:20:57Z</time>
      </trkpt>
      <trkpt lat="45.71079" lon="4.6546">
        <ele>525.02</ele>
        <time>2012-06-10T08:21:13Z</time>
      </trkpt>
      <trkpt lat="45.71068" lon="4.65439">
        <ele>528.86</ele>
        <time>2012-06-10T08:21:27Z</time>
      </trkpt>
      <trkpt lat="45.71064" lon="4.65428">
        <ele>530.3</ele>
        <time>2012-06-10T08:21:34Z</time>
      </trkpt>
      <trkpt lat="45.71061" lon="4.65424">
        <ele>530.79</ele>
        <time>2012-06-10T08:21:37Z</time>
      </trkpt>
      <trkpt lat="45.71028" lon="4.65419">
        <ele>529.82</ele>
        <time>2012-06-10T08:21:49Z</time>
      </trkpt>
      <trkpt lat="45.71012" lon="4.65418">
        <ele>526.94</ele>
        <time>2012-06-10T08:21:56Z</time>
      </trkpt>
      <trkpt lat="45.70999" lon="4.65426">
        <ele>525.02</ele>
        <time>2012-06-10T08:22:07Z</time>
      </trkpt>
      <trkpt lat="45.70998" lon="4.65426">
        <ele>525.98</ele>
        <time>2012-06-10T08:22:22Z</time>
      </trkpt>
      <trkpt lat="45.70994" lon="4.65425">
        <ele>526.94</ele>
        <time>2012-06-10T08:22:37Z</time>
      </trkpt>
      <trkpt lat="45.70994" lon="4.65426">
        <ele>528.86</ele>
        <time>2012-06-10T08:23:04Z</time>
      </trkpt>
      <trkpt lat="45.70994" lon="4.65425">
        <ele>529.34</ele>
        <time>2012-06-10T08:23:38Z</time>
      </trkpt>
      <trkpt lat="45.70993" lon="4.65425">
        <ele>529.34</ele>
        <time>2012-06-10T08:24:07Z</time>
      </trkpt>
      <trkpt lat="45.70993" lon="4.65425">
        <ele>530.79</ele>
        <time>2012-06-10T08:24:42Z</time>
      </trkpt>
      <trkpt lat="45.70993" lon="4.65425">
        <ele>531.75</ele>
        <time>2012-06-10T08:25:14Z</time>
      </trkpt>
      <trkpt lat="45.70992" lon="4.65425">
        <ele>531.75</ele>
        <time>2012-06-10T08:25:51Z</time>
      </trkpt>
      <trkpt lat="45.70992" lon="4.65425">
        <ele>530.79</ele>
        <time>2012-06-10T08:26:20Z</time>
      </trkpt>
      <trkpt lat="45.70992" lon="4.65425">
        <ele>530.3</ele>
        <time>2012-06-10T08:26:58Z</time>
      </trkpt>
      <trkpt lat="45.70993" lon="4.65425">
        <ele>530.79</ele>
        <time>2012-06-10T08:27:39Z</time>
      </trkpt>
      <trkpt lat="45.70994" lon="4.65424">
        <ele>530.79</ele>
        <time>2012-06-10T08:28:13Z</time>
      </trkpt>
      <trkpt lat="45.70995" lon="4.65426">
        <ele>531.27</ele>
        <time>2012-06-10T08:28:50Z</time>
      </trkpt>
      <trkpt lat="45.70995" lon="4.65426">
        <ele>532.23</ele>
        <time>2012-06-10T08:29:23Z</time>
      </trkpt>
      <trkpt lat="45.70995" lon="4.65426">
        <ele>533.67</ele>
        <time>2012-06-10T08:29:55Z</time>
      </trkpt>
      <trkpt lat="45.70994" lon="4.65427">
        <ele>533.19</ele>
        <time>2012-06-10T08:30:27Z</time>
      </trkpt>
      <trkpt lat="45.70995" lon="4.65425">
        <ele>533.19</ele>
        <time>2012-06-10T08:30:37Z</time>
      </trkpt>
      <trkpt lat="45.70995" lon="4.65421">
        <ele>531.75</ele>
        <time>2012-06-10T08:30:50Z</time>
      </trkpt>
      <trkpt lat="45.70995" lon="4.65421">
        <ele>530.79</ele>
        <time>2012-06-10T08:31:19Z</time>
      </trkpt>
      <trkpt lat="45.70994" lon="4.6542">
        <ele>531.27</ele>
        <time>2012-06-10T08:31:39Z</time>
      </trkpt>
      <trkpt lat="45.70995" lon="4.6542">
        <ele>531.27</ele>
        <time>2012-06-10T08:32:00Z</time>
      </trkpt>
      <trkpt lat="45.70996" lon="4.65419">
        <ele>531.27</ele>
        <time>2012-06-10T08:32:15Z</time>
      </trkpt>
      <trkpt lat="45.70997" lon="4.65418">
        <ele>530.79</ele>
        <time>2012-06-10T08:32:32Z</time>
      </trkpt>
      <trkpt lat="45.70998" lon="4.65417">
        <ele>530.3</ele>
        <time>2012-06-10T08:32:46Z</time>
      </trkpt>
      <trkpt lat="45.70999" lon="4.65417">
        <ele>529.82</ele>
        <time>2012-06-10T08:33:11Z</time>
      </trkpt>
      <trkpt lat="45.70999" lon="4.65417">
        <ele>529.34</ele>
        <time>2012-06-10T08:33:29Z</time>
      </trkpt>
      <trkpt lat="45.71007" lon="4.65417">
        <ele>530.3</ele>
        <time>2012-06-10T08:33:36Z</time>
      </trkpt>
      <trkpt lat="45.7101" lon="4.65426">
        <ele>529.34</ele>
        <time>2012-06-10T08:33:44Z</time>
      </trkpt>
      <trkpt lat="45.71006" lon="4.65434">
        <ele>528.86</ele>
        <time>2012-06-10T08:33:48Z</time>
      </trkpt>
      <trkpt lat="45.71002" lon="4.65439">
        <ele>527.9</ele>
        <time>2012-06-10T08:33:51Z</time>
      </trkpt>
      <trkpt lat="45.70994" lon="4.65457">
        <ele>525.98</ele>
        <time>2012-06-10T08:33:59Z</time>
      </trkpt>
      <trkpt lat="45.70976" lon="4.6548">
        <ele>518.29</ele>
        <time>2012-06-10T08:34:13Z</time>
      </trkpt>
      <trkpt lat="45.7095" lon="4.6549">
        <ele>514.44</ele>
        <time>2012-06-10T08:34:25Z</time>
      </trkpt>
      <trkpt lat="45.70944" lon="4.65491">
        <ele>514.44</ele>
        <time>2012-06-10T08:34:27Z</time>
      </trkpt>
      <trkpt lat="45.70911" lon="4.65512">
        <ele>507.23</ele>
        <time>2012-06-10T08:34:39Z</time>
      </trkpt>
      <trkpt lat="45.70884" lon="4.65528">
        <ele>502.91</ele>
        <time>2012-06-10T08:34:51Z</time>
      </trkpt>
      <trkpt lat="45.70864" lon="4.65538">
        <ele>498.58</ele>
        <time>2012-06-10T08:35:01Z</time>
      </trkpt>
      <trkpt lat="45.70859" lon="4.65537">
        <ele>496.18</ele>
        <time>2012-06-10T08:35:12Z</time>
      </trkpt>
      <trkpt lat="45.70842" lon="4.65541">
        <ele>493.29</ele>
        <time>2012-06-10T08:35:24Z</time>
      </trkpt>
      <trkpt lat="45.70826" lon="4.65548">
        <ele>489.93</ele>
        <time>2012-06-10T08:35:34Z</time>
      </trkpt>
      <trkpt lat="45.70815" lon="4.65555">
        <ele>488.49</ele>
        <time>2012-06-10T08:35:45Z</time>
      </trkpt>
      <trkpt lat="45.70802" lon="4.65566">
        <ele>486.56</ele>
        <time>2012-06-10T08:35:57Z</time>
      </trkpt>
      <trkpt lat="45.708" lon="4.6557">
        <ele>485.6</ele>
        <time>2012-06-10T08:36:09Z</time>
      </trkpt>
      <trkpt lat="45.70798" lon="4.65571">
        <ele>485.6</ele>
        <time>2012-06-10T08:36:18Z</time>
      </trkpt>
      <trkpt lat="45.70795" lon="4.65577">
        <ele>484.64</ele>
        <time>2012-06-10T08:36:23Z</time>
      </trkpt>
      <trkpt lat="45.70793" lon="4.65581">
        <ele>484.16</ele>
        <time>2012-06-10T08:36:31Z</time>
      </trkpt>
      <trkpt lat="45.70792" lon="4.65583">
        <ele>483.68</ele>
        <time>2012-06-10T08:36:33Z</time>
      </trkpt>
      <trkpt lat="45.70784" lon="4.65593">
        <ele>481.76</ele>
        <time>2012-06-10T08:36:39Z</time>
      </trkpt>
      <trkpt lat="45.70775" lon="4.65606">
        <ele>478.39</ele>
        <time>2012-06-10T08:36:48Z</time>
      </trkpt>
      <trkpt lat="45.70762" lon="4.65636">
        <ele>473.11</ele>
        <time>2012-06-10T08:37:00Z</time>
      </trkpt>
      <trkpt lat="45.70749" lon="4.65672">
        <ele>469.26</ele>
        <time>2012-06-10T08:37:08Z</time>
      </trkpt>
      <trkpt lat="45.70735" lon="4.65696">
        <ele>466.86</ele>
        <time>2012-06-10T08:37:14Z</time>
      </trkpt>
      <trkpt lat="45.70726" lon="4.65691">
        <ele>468.3</ele>
        <time>2012-06-10T08:37:27Z</time>
      </trkpt>
      <trkpt lat="45.70726" lon="4.65691">
        <ele>468.78</ele>
        <time>2012-06-10T08:37:49Z</time>
      </trkpt>
      <trkpt lat="45.70724" lon="4.65689">
        <ele>468.78</ele>
        <time>2012-06-10T08:38:11Z</time>
      </trkpt>
      <trkpt lat="45.70702" lon="4.65676">
        <ele>467.34</ele>
        <time>2012-06-10T08:38:18Z</time>
      </trkpt>
      <trkpt lat="45.70681" lon="4.65659">
        <ele>463.01</ele>
        <time>2012-06-10T08:38:25Z</time>
      </trkpt>
      <trkpt lat="45.70676" lon="4.65677">
        <ele>460.61</ele>
        <time>2012-06-10T08:38:29Z</time>
      </trkpt>
      <trkpt lat="45.70674" lon="4.65714">
        <ele>457.72</ele>
        <time>2012-06-10T08:38:33Z</time>
      </trkpt>
      <trkpt lat="45.70671" lon="4.65792">
        <ele>452.92</ele>
        <time>2012-06-10T08:38:40Z</time>
      </trkpt>
      <trkpt lat="45.70642" lon="4.65873">
        <ele>444.75</ele>
        <time>2012-06-10T08:38:48Z</time>
      </trkpt>
      <trkpt lat="45.70641" lon="4.65886">
        <ele>443.79</ele>
        <time>2012-06-10T08:38:49Z</time>
      </trkpt>
      <trkpt lat="45.70637" lon="4.66062">
        <ele>430.81</ele>
        <time>2012-06-10T08:39:00Z</time>
      </trkpt>
      <trkpt lat="45.70637" lon="4.66076">
        <ele>430.33</ele>
        <time>2012-06-10T08:39:01Z</time>
      </trkpt>
      <trkpt lat="45.70631" lon="4.66112">
        <ele>428.89</ele>
        <time>2012-06-10T08:39:04Z</time>
      </trkpt>
      <trkpt lat="45.7059" lon="4.66207">
        <ele>425.04</ele>
        <time>2012-06-10T08:39:14Z</time>
      </trkpt>
      <trkpt lat="45.70587" lon="4.66211">
        <ele>424.56</ele>
        <time>2012-06-10T08:39:15Z</time>
      </trkpt>
      <trkpt lat="45.70601" lon="4.6623">
        <ele>423.12</ele>
        <time>2012-06-10T08:39:22Z</time>
      </trkpt>
      <trkpt lat="45.70612" lon="4.66237">
        <ele>422.64</ele>
        <time>2012-06-10T08:39:25Z</time>
      </trkpt>
      <trkpt lat="45.7062" lon="4.66241">
        <ele>422.16</ele>
        <time>2012-06-10T08:39:27Z</time>
      </trkpt>
      <trkpt lat="45.70653" lon="4.66252">
        <ele>419.27</ele>
        <time>2012-06-10T08:39:33Z</time>
      </trkpt>
      <trkpt lat="45.70679" lon="4.6624">
        <ele>416.39</ele>
        <time>2012-06-10T08:39:38Z</time>
      </trkpt>
      <trkpt lat="45.70686" lon="4.66228">
        <ele>414.95</ele>
        <time>2012-06-10T08:39:40Z</time>
      </trkpt>
      <trkpt lat="45.70712" lon="4.66231">
        <ele>411.58</ele>
        <time>2012-06-10T08:39:46Z</time>
      </trkpt>
      <trkpt lat="45.70717" lon="4.66269">
        <ele>410.14</ele>
        <time>2012-06-10T08:39:51Z</time>
      </trkpt>
      <trkpt lat="45.70712" lon="4.66293">
        <ele>409.66</ele>
        <time>2012-06-10T08:39:54Z</time>
      </trkpt>
      <trkpt lat="45.70703" lon="4.66321">
        <ele>409.18</ele>
        <time>2012-06-10T08:39:58Z</time>
      </trkpt>
      <trkpt lat="45.70689" lon="4.6636">
        <ele>407.74</ele>
        <time>2012-06-10T08:40:03Z</time>
      </trkpt>
      <trkpt lat="45.70678" lon="4.66416">
        <ele>405.33</ele>
        <time>2012-06-10T08:40:09Z</time>
      </trkpt>
      <trkpt lat="45.70673" lon="4.6652">
        <ele>405.81</ele>
        <time>2012-06-10T08:40:22Z</time>
      </trkpt>
      <trkpt lat="45.70673" lon="4.66556">
        <ele>406.77</ele>
        <time>2012-06-10T08:40:27Z</time>
      </trkpt>
      <trkpt lat="45.70668" lon="4.66616">
        <ele>405.81</ele>
        <time>2012-06-10T08:40:35Z</time>
      </trkpt>
      <trkpt lat="45.70684" lon="4.66674">
        <ele>405.81</ele>
        <time>2012-06-10T08:40:44Z</time>
      </trkpt>
      <trkpt lat="45.70742" lon="4.66749">
        <ele>404.85</ele>
        <time>2012-06-10T08:41:00Z</time>
      </trkpt>
      <trkpt lat="45.7075" lon="4.66757">
        <ele>403.89</ele>
        <time>2012-06-10T08:41:02Z</time>
      </trkpt>
      <trkpt lat="45.70791" lon="4.66787">
        <ele>401.01</ele>
        <time>2012-06-10T08:41:10Z</time>
      </trkpt>
      <trkpt lat="45.70813" lon="4.66801">
        <ele>399.08</ele>
        <time>2012-06-10T08:41:17Z</time>
      </trkpt>
      <trkpt lat="45.70813" lon="4.668">
        <ele>400.05</ele>
        <time>2012-06-10T08:41:34Z</time>
      </trkpt>
      <trkpt lat="45.70806" lon="4.66833">
        <ele>398.12</ele>
        <time>2012-06-10T08:41:42Z</time>
      </trkpt>
      <trkpt lat="45.70807" lon="4.66837">
        <ele>396.68</ele>
        <time>2012-06-10T08:41:46Z</time>
      </trkpt>
      <trkpt lat="45.70811" lon="4.66904">
        <ele>392.36</ele>
        <time>2012-06-10T08:41:56Z</time>
      </trkpt>
      <trkpt lat="45.70812" lon="4.66911">
        <ele>391.87</ele>
        <time>2012-06-10T08:41:57Z</time>
      </trkpt>
      <trkpt lat="45.70818" lon="4.66945">
        <ele>389.47</ele>
        <time>2012-06-10T08:42:02Z</time>
      </trkpt>
      <trkpt lat="45.70834" lon="4.67032">
        <ele>382.74</ele>
        <time>2012-06-10T08:42:13Z</time>
      </trkpt>
      <trkpt lat="45.70852" lon="4.67116">
        <ele>376.49</ele>
        <time>2012-06-10T08:42:25Z</time>
      </trkpt>
      <trkpt lat="45.70865" lon="4.67179">
        <ele>373.13</ele>
        <time>2012-06-10T08:42:37Z</time>
      </trkpt>
      <trkpt lat="45.70866" lon="4.67187">
        <ele>372.17</ele>
        <time>2012-06-10T08:42:40Z</time>
      </trkpt>
      <trkpt lat="45.70887" lon="4.67184">
        <ele>371.69</ele>
        <time>2012-06-10T08:42:51Z</time>
      </trkpt>
      <trkpt lat="45.70896" lon="4.67181">
        <ele>370.73</ele>
        <time>2012-06-10T08:42:55Z</time>
      </trkpt>
      <trkpt lat="45.70902" lon="4.67193">
        <ele>370.73</ele>
        <time>2012-06-10T08:43:01Z</time>
      </trkpt>
      <trkpt lat="45.70907" lon="4.67245">
        <ele>370.24</ele>
        <time>2012-06-10T08:43:15Z</time>
      </trkpt>
      <trkpt lat="45.70907" lon="4.67251">
        <ele>370.24</ele>
        <time>2012-06-10T08:43:16Z</time>
      </trkpt>
      <trkpt lat="45.70928" lon="4.67306">
        <ele>368.32</ele>
        <time>2012-06-10T08:43:24Z</time>
      </trkpt>
      <trkpt lat="45.70941" lon="4.67335">
        <ele>366.88</ele>
        <time>2012-06-10T08:43:28Z</time>
      </trkpt>
      <trkpt lat="45.70959" lon="4.67374">
        <ele>366.4</ele>
        <time>2012-06-10T08:43:34Z</time>
      </trkpt>
      <trkpt lat="45.70964" lon="4.67401">
        <ele>366.88</ele>
        <time>2012-06-10T08:43:38Z</time>
      </trkpt>
      <trkpt lat="45.70962" lon="4.67453">
        <ele>369.28</ele>
        <time>2012-06-10T08:43:46Z</time>
      </trkpt>
      <trkpt lat="45.70959" lon="4.67471">
        <ele>369.76</ele>
        <time>2012-06-10T08:43:49Z</time>
      </trkpt>
      <trkpt lat="45.70954" lon="4.67513">
        <ele>369.28</ele>
        <time>2012-06-10T08:43:55Z</time>
      </trkpt>
      <trkpt lat="45.70973" lon="4.67629">
        <ele>361.59</ele>
        <time>2012-06-10T08:44:06Z</time>
      </trkpt>
      <trkpt lat="45.70975" lon="4.6764">
        <ele>361.11</ele>
        <time>2012-06-10T08:44:07Z</time>
      </trkpt>
      <trkpt lat="45.70992" lon="4.67717">
        <ele>356.31</ele>
        <time>2012-06-10T08:44:13Z</time>
      </trkpt>
      <trkpt lat="45.71001" lon="4.6775">
        <ele>354.86</ele>
        <time>2012-06-10T08:44:16Z</time>
      </trkpt>
      <trkpt lat="45.71002" lon="4.67816">
        <ele>351.98</ele>
        <time>2012-06-10T08:44:22Z</time>
      </trkpt>
      <trkpt lat="45.71006" lon="4.67869">
        <ele>349.1</ele>
        <time>2012-06-10T08:44:27Z</time>
      </trkpt>
      <trkpt lat="45.71005" lon="4.67902">
        <ele>347.17</ele>
        <time>2012-06-10T08:44:33Z</time>
      </trkpt>
      <trkpt lat="45.71008" lon="4.67997">
        <ele>339.48</ele>
        <time>2012-06-10T08:44:44Z</time>
      </trkpt>
      <trkpt lat="45.71009" lon="4.68105">
        <ele>328.43</ele>
        <time>2012-06-10T08:44:55Z</time>
      </trkpt>
      <trkpt lat="45.7101" lon="4.68125">
        <ele>325.54</ele>
        <time>2012-06-10T08:45:01Z</time>
      </trkpt>
      <trkpt lat="45.7101" lon="4.68125">
        <ele>325.06</ele>
        <time>2012-06-10T08:45:32Z</time>
      </trkpt>
      <trkpt lat="45.7101" lon="4.68125">
        <ele>324.58</ele>
        <time>2012-06-10T08:45:53Z</time>
      </trkpt>
      <trkpt lat="45.7101" lon="4.68125">
        <ele>324.58</ele>
        <time>2012-06-10T08:46:17Z</time>
      </trkpt>
      <trkpt lat="45.7104" lon="4.68116">
        <ele>325.54</ele>
        <time>2012-06-10T08:46:29Z</time>
      </trkpt>
      <trkpt lat="45.71093" lon="4.6809">
        <ele>328.43</ele>
        <time>2012-06-10T08:46:45Z</time>
      </trkpt>
      <trkpt lat="45.71148" lon="4.68066">
        <ele>329.87</ele>
        <time>2012-06-10T08:47:02Z</time>
      </trkpt>
      <trkpt lat="45.71189" lon="4.68063">
        <ele>329.39</ele>
        <time>2012-06-10T08:47:14Z</time>
      </trkpt>
      <trkpt lat="45.71193" lon="4.68064">
        <ele>329.39</ele>
        <time>2012-06-10T08:47:15Z</time>
      </trkpt>
      <trkpt lat="45.71203" lon="4.68066">
        <ele>329.39</ele>
        <time>2012-06-10T08:47:17Z</time>
      </trkpt>
      <trkpt lat="45.71245" lon="4.68045">
        <ele>331.31</ele>
        <time>2012-06-10T08:47:30Z</time>
      </trkpt>
      <trkpt lat="45.71296" lon="4.68041">
        <ele>331.79</ele>
        <time>2012-06-10T08:47:45Z</time>
      </trkpt>
      <trkpt lat="45.71349" lon="4.68061">
        <ele>330.83</ele>
        <time>2012-06-10T08:48:00Z</time>
      </trkpt>
      <trkpt lat="45.71354" lon="4.68061">
        <ele>330.83</ele>
        <time>2012-06-10T08:48:01Z</time>
      </trkpt>
      <trkpt lat="45.71397" lon="4.68055">
        <ele>333.23</ele>
        <time>2012-06-10T08:48:13Z</time>
      </trkpt>
      <trkpt lat="45.71456" lon="4.68095">
        <ele>332.75</ele>
        <time>2012-06-10T08:48:30Z</time>
      </trkpt>
      <trkpt lat="45.71493" lon="4.68147">
        <ele>334.68</ele>
        <time>2012-06-10T08:48:44Z</time>
      </trkpt>
      <trkpt lat="45.71525" lon="4.68217">
        <ele>334.2</ele>
        <time>2012-06-10T08:48:59Z</time>
      </trkpt>
      <trkpt lat="45.7153" lon="4.68227">
        <ele>334.2</ele>
        <time>2012-06-10T08:49:01Z</time>
      </trkpt>
      <trkpt lat="45.71542" lon="4.68244">
        <ele>333.71</ele>
        <time>2012-06-10T08:49:05Z</time>
      </trkpt>
      <trkpt lat="45.71602" lon="4.68301">
        <ele>327.47</ele>
        <time>2012-06-10T08:49:18Z</time>
      </trkpt>
      <trkpt lat="45.71689" lon="4.68415">
        <ele>322.66</ele>
        <time>2012-06-10T08:49:32Z</time>
      </trkpt>
      <trkpt lat="45.71785" lon="4.68565">
        <ele>323.14</ele>
        <time>2012-06-10T08:49:50Z</time>
      </trkpt>
      <trkpt lat="45.71804" lon="4.68618">
        <ele>325.54</ele>
        <time>2012-06-10T08:50:00Z</time>
      </trkpt>
      <trkpt lat="45.71812" lon="4.68634">
        <ele>327.47</ele>
        <time>2012-06-10T08:50:06Z</time>
      </trkpt>
      <trkpt lat="45.71829" lon="4.68637">
        <ele>328.91</ele>
        <time>2012-06-10T08:50:14Z</time>
      </trkpt>
      <trkpt lat="45.71856" lon="4.68651">
        <ele>333.71</ele>
        <time>2012-06-10T08:50:28Z</time>
      </trkpt>
      <trkpt lat="45.71887" lon="4.68665">
        <ele>336.6</ele>
        <time>2012-06-10T08:50:41Z</time>
      </trkpt>
      <trkpt lat="45.71935" lon="4.68676">
        <ele>337.08</ele>
        <time>2012-06-10T08:50:59Z</time>
      </trkpt>
      <trkpt lat="45.71976" lon="4.68664">
        <ele>337.56</ele>
        <time>2012-06-10T08:51:14Z</time>
      </trkpt>
      <trkpt lat="45.7203" lon="4.68676">
        <ele>339</ele>
        <time>2012-06-10T08:51:31Z</time>
      </trkpt>
      <trkpt lat="45.72084" lon="4.68717">
        <ele>339</ele>
        <time>2012-06-10T08:51:49Z</time>
      </trkpt>
      <trkpt lat="45.72123" lon="4.68736">
        <ele>339.48</ele>
        <time>2012-06-10T08:52:04Z</time>
      </trkpt>
      <trkpt lat="45.72133" lon="4.68752">
        <ele>339.48</ele>
        <time>2012-06-10T08:52:16Z</time>
      </trkpt>
      <trkpt lat="45.72157" lon="4.68786">
        <ele>340.44</ele>
        <time>2012-06-10T08:52:32Z</time>
      </trkpt>
      <trkpt lat="45.72164" lon="4.68769">
        <ele>341.89</ele>
        <time>2012-06-10T08:52:38Z</time>
      </trkpt>
      <trkpt lat="45.72196" lon="4.68681">
        <ele>339.48</ele>
        <time>2012-06-10T08:52:54Z</time>
      </trkpt>
      <trkpt lat="45.72237" lon="4.6857">
        <ele>339.48</ele>
        <time>2012-06-10T08:53:13Z</time>
      </trkpt>
      <trkpt lat="45.72253" lon="4.68523">
        <ele>339</ele>
        <time>2012-06-10T08:53:21Z</time>
      </trkpt>
      <trkpt lat="45.72255" lon="4.68491">
        <ele>338.52</ele>
        <time>2012-06-10T08:53:26Z</time>
      </trkpt>
      <trkpt lat="45.72274" lon="4.68406">
        <ele>335.16</ele>
        <time>2012-06-10T08:53:37Z</time>
      </trkpt>
      <trkpt lat="45.72317" lon="4.6824">
        <ele>327.47</ele>
        <time>2012-06-10T08:53:53Z</time>
      </trkpt>
      <trkpt lat="45.72336" lon="4.68156">
        <ele>325.06</ele>
        <time>2012-06-10T08:54:00Z</time>
      </trkpt>
      <trkpt lat="45.72355" lon="4.68025">
        <ele>325.54</ele>
        <time>2012-06-10T08:54:14Z</time>
      </trkpt>
      <trkpt lat="45.72389" lon="4.67921">
        <ele>325.06</ele>
        <time>2012-06-10T08:54:28Z</time>
      </trkpt>
      <trkpt lat="45.72405" lon="4.67871">
        <ele>325.06</ele>
        <time>2012-06-10T08:54:35Z</time>
      </trkpt>
      <trkpt lat="45.72411" lon="4.67814">
        <ele>324.58</ele>
        <time>2012-06-10T08:54:42Z</time>
      </trkpt>
      <trkpt lat="45.72416" lon="4.67775">
        <ele>324.58</ele>
        <time>2012-06-10T08:54:47Z</time>
      </trkpt>
      <trkpt lat="45.72422" lon="4.67752">
        <ele>324.1</ele>
        <time>2012-06-10T08:54:50Z</time>
      </trkpt>
      <trkpt lat="45.72427" lon="4.67724">
        <ele>323.14</ele>
        <time>2012-06-10T08:54:54Z</time>
      </trkpt>
      <trkpt lat="45.72425" lon="4.67708">
        <ele>321.22</ele>
        <time>2012-06-10T08:54:59Z</time>
      </trkpt>
      <trkpt lat="45.72441" lon="4.67706">
        <ele>315.45</ele>
        <time>2012-06-10T08:55:09Z</time>
      </trkpt>
      <trkpt lat="45.72443" lon="4.67707">
        <ele>314.97</ele>
        <time>2012-06-10T08:55:10Z</time>
      </trkpt>
      <trkpt lat="45.72457" lon="4.67715">
        <ele>311.6</ele>
        <time>2012-06-10T08:55:16Z</time>
      </trkpt>
      <trkpt lat="45.72475" lon="4.67734">
        <ele>307.76</ele>
        <time>2012-06-10T08:55:28Z</time>
      </trkpt>
      <trkpt lat="45.72479" lon="4.67736">
        <ele>306.32</ele>
        <time>2012-06-10T08:55:31Z</time>
      </trkpt>
      <trkpt lat="45.72484" lon="4.67729">
        <ele>305.84</ele>
        <time>2012-06-10T08:55:35Z</time>
      </trkpt>
      <trkpt lat="45.72507" lon="4.67689">
        <ele>301.99</ele>
        <time>2012-06-10T08:55:51Z</time>
      </trkpt>
      <trkpt lat="45.72518" lon="4.67674">
        <ele>302.47</ele>
        <time>2012-06-10T08:56:03Z</time>
      </trkpt>
      <trkpt lat="45.7252" lon="4.67674">
        <ele>302.47</ele>
        <time>2012-06-10T08:56:04Z</time>
      </trkpt>
      <trkpt lat="45.72525" lon="4.67674">
        <ele>303.43</ele>
        <time>2012-06-10T08:56:08Z</time>
      </trkpt>
      <trkpt lat="45.72531" lon="4.67669">
        <ele>310.16</ele>
        <time>2012-06-10T08:56:23Z</time>
      </trkpt>
      <trkpt lat="45.72532" lon="4.67668">
        <ele>312.57</ele>
        <time>2012-06-10T08:56:55Z</time>
      </trkpt>
      <trkpt lat="45.72533" lon="4.67667">
        <ele>312.57</ele>
        <time>2012-06-10T08:57:06Z</time>
      </trkpt>
      <trkpt lat="45.72547" lon="4.67638">
        <ele>309.68</ele>
        <time>2012-06-10T08:57:20Z</time>
      </trkpt>
      <trkpt lat="45.72561" lon="4.6762">
        <ele>310.64</ele>
        <time>2012-06-10T08:57:33Z</time>
      </trkpt>
      <trkpt lat="45.72572" lon="4.6761">
        <ele>313.05</ele>
        <time>2012-06-10T08:57:41Z</time>
      </trkpt>
      <trkpt lat="45.72589" lon="4.67602">
        <ele>315.45</ele>
        <time>2012-06-10T08:57:49Z</time>
      </trkpt>
      <trkpt lat="45.7261" lon="4.67594">
        <ele>319.78</ele>
        <time>2012-06-10T08:58:02Z</time>
      </trkpt>
      <trkpt lat="45.72628" lon="4.6759">
        <ele>320.26</ele>
        <time>2012-06-10T08:58:14Z</time>
      </trkpt>
      <trkpt lat="45.72651" lon="4.6758">
        <ele>322.18</ele>
        <time>2012-06-10T08:58:28Z</time>
      </trkpt>
      <trkpt lat="45.72653" lon="4.6758">
        <ele>322.66</ele>
        <time>2012-06-10T08:58:29Z</time>
      </trkpt>
      <trkpt lat="45.72678" lon="4.67573">
        <ele>326.5</ele>
        <time>2012-06-10T08:58:44Z</time>
      </trkpt>
      <trkpt lat="45.72698" lon="4.67569">
        <ele>330.35</ele>
        <time>2012-06-10T08:58:58Z</time>
      </trkpt>
      <trkpt lat="45.72714" lon="4.67564">
        <ele>332.75</ele>
        <time>2012-06-10T08:59:11Z</time>
      </trkpt>
      <trkpt lat="45.72716" lon="4.67561">
        <ele>332.75</ele>
        <time>2012-06-10T08:59:13Z</time>
      </trkpt>
      <trkpt lat="45.7273" lon="4.67544">
        <ele>333.23</ele>
        <time>2012-06-10T08:59:29Z</time>
      </trkpt>
      <trkpt lat="45.72732" lon="4.67541">
        <ele>333.23</ele>
        <time>2012-06-10T08:59:31Z</time>
      </trkpt>
      <trkpt lat="45.72734" lon="4.67535">
        <ele>334.2</ele>
        <time>2012-06-10T08:59:35Z</time>
      </trkpt>
      <trkpt lat="45.72738" lon="4.67527">
        <ele>333.71</ele>
        <time>2012-06-10T08:59:47Z</time>
      </trkpt>
      <trkpt lat="45.72737" lon="4.67526">
        <ele>335.16</ele>
        <time>2012-06-10T09:00:12Z</time>
      </trkpt>
      <trkpt lat="45.72737" lon="4.67525">
        <ele>336.12</ele>
        <time>2012-06-10T09:00:36Z</time>
      </trkpt>
      <trkpt lat="45.7274" lon="4.67517">
        <ele>336.6</ele>
        <time>2012-06-10T09:00:57Z</time>
      </trkpt>
      <trkpt lat="45.72755" lon="4.67494">
        <ele>339.48</ele>
        <time>2012-06-10T09:01:10Z</time>
      </trkpt>
      <trkpt lat="45.72777" lon="4.67481">
        <ele>337.56</ele>
        <time>2012-06-10T09:01:24Z</time>
      </trkpt>
      <trkpt lat="45.72791" lon="4.67473">
        <ele>335.64</ele>
        <time>2012-06-10T09:01:32Z</time>
      </trkpt>
      <trkpt lat="45.72796" lon="4.67473">
        <ele>334.68</ele>
        <time>2012-06-10T09:01:36Z</time>
      </trkpt>
      <trkpt lat="45.72824" lon="4.67454">
        <ele>337.08</ele>
        <time>2012-06-10T09:01:52Z</time>
      </trkpt>
      <trkpt lat="45.72843" lon="4.67433">
        <ele>338.04</ele>
        <time>2012-06-10T09:02:05Z</time>
      </trkpt>
      <trkpt lat="45.72862" lon="4.67409">
        <ele>339</ele>
        <time>2012-06-10T09:02:18Z</time>
      </trkpt>
      <trkpt lat="45.72888" lon="4.67369">
        <ele>340.92</ele>
        <time>2012-06-10T09:02:32Z</time>
      </trkpt>
      <trkpt lat="45.72914" lon="4.67314">
        <ele>342.85</ele>
        <time>2012-06-10T09:02:47Z</time>
      </trkpt>
      <trkpt lat="45.72934" lon="4.67261">
        <ele>348.62</ele>
        <time>2012-06-10T09:03:01Z</time>
      </trkpt>
      <trkpt lat="45.72958" lon="4.67193">
        <ele>351.02</ele>
        <time>2012-06-10T09:03:18Z</time>
      </trkpt>
      <trkpt lat="45.72986" lon="4.67133">
        <ele>351.5</ele>
        <time>2012-06-10T09:03:34Z</time>
      </trkpt>
      <trkpt lat="45.73022" lon="4.67083">
        <ele>352.46</ele>
        <time>2012-06-10T09:03:52Z</time>
      </trkpt>
      <trkpt lat="45.73056" lon="4.67051">
        <ele>354.38</ele>
        <time>2012-06-10T09:04:07Z</time>
      </trkpt>
      <trkpt lat="45.73085" lon="4.67025">
        <ele>356.79</ele>
        <time>2012-06-10T09:04:23Z</time>
      </trkpt>
      <trkpt lat="45.73112" lon="4.67002">
        <ele>359.19</ele>
        <time>2012-06-10T09:04:40Z</time>
      </trkpt>
      <trkpt lat="45.73132" lon="4.66984">
        <ele>361.11</ele>
        <time>2012-06-10T09:04:53Z</time>
      </trkpt>
      <trkpt lat="45.73157" lon="4.66965">
        <ele>362.07</ele>
        <time>2012-06-10T09:05:07Z</time>
      </trkpt>
      <trkpt lat="45.73176" lon="4.66952">
        <ele>362.07</ele>
        <time>2012-06-10T09:05:19Z</time>
      </trkpt>
      <trkpt lat="45.73182" lon="4.66953">
        <ele>362.07</ele>
        <time>2012-06-10T09:05:35Z</time>
      </trkpt>
      <trkpt lat="45.73182" lon="4.66954">
        <ele>362.55</ele>
        <time>2012-06-10T09:06:04Z</time>
      </trkpt>
      <trkpt lat="45.73182" lon="4.66954">
        <ele>363.04</ele>
        <time>2012-06-10T09:06:17Z</time>
      </trkpt>
      <trkpt lat="45.7319" lon="4.66969">
        <ele>362.55</ele>
        <time>2012-06-10T09:06:24Z</time>
      </trkpt>
      <trkpt lat="45.73218" lon="4.6703">
        <ele>362.55</ele>
        <time>2012-06-10T09:06:39Z</time>
      </trkpt>
      <trkpt lat="45.73259" lon="4.67128">
        <ele>362.55</ele>
        <time>2012-06-10T09:06:56Z</time>
      </trkpt>
      <trkpt lat="45.73267" lon="4.67157">
        <ele>363.52</ele>
        <time>2012-06-10T09:07:01Z</time>
      </trkpt>
      <trkpt lat="45.73266" lon="4.67247">
        <ele>365.92</ele>
        <time>2012-06-10T09:07:18Z</time>
      </trkpt>
      <trkpt lat="45.73262" lon="4.67353">
        <ele>367.84</ele>
        <time>2012-06-10T09:07:37Z</time>
      </trkpt>
      <trkpt lat="45.73258" lon="4.67416">
        <ele>367.84</ele>
        <time>2012-06-10T09:07:48Z</time>
      </trkpt>
      <trkpt lat="45.73283" lon="4.67528">
        <ele>366.88</ele>
        <time>2012-06-10T09:08:05Z</time>
      </trkpt>
      <trkpt lat="45.73328" lon="4.6762">
        <ele>363.52</ele>
        <time>2012-06-10T09:08:18Z</time>
      </trkpt>
      <trkpt lat="45.73388" lon="4.67749">
        <ele>357.27</ele>
        <time>2012-06-10T09:08:31Z</time>
      </trkpt>
      <trkpt lat="45.73466" lon="4.67915">
        <ele>349.1</ele>
        <time>2012-06-10T09:08:45Z</time>
      </trkpt>
      <trkpt lat="45.73522" lon="4.6804">
        <ele>348.62</ele>
        <time>2012-06-10T09:08:58Z</time>
      </trkpt>
      <trkpt lat="45.73578" lon="4.68159">
        <ele>348.62</ele>
        <time>2012-06-10T09:09:14Z</time>
      </trkpt>
      <trkpt lat="45.73644" lon="4.68302">
        <ele>345.25</ele>
        <time>2012-06-10T09:09:32Z</time>
      </trkpt>
      <trkpt lat="45.73706" lon="4.6843">
        <ele>339.96</ele>
        <time>2012-06-10T09:09:46Z</time>
      </trkpt>
      <trkpt lat="45.73752" lon="4.68527">
        <ele>336.12</ele>
        <time>2012-06-10T09:09:57Z</time>
      </trkpt>
      <trkpt lat="45.73785" lon="4.6853">
        <ele>335.64</ele>
        <time>2012-06-10T09:10:03Z</time>
      </trkpt>
      <trkpt lat="45.7379" lon="4.68526">
        <ele>335.64</ele>
        <time>2012-06-10T09:10:04Z</time>
      </trkpt>
      <trkpt lat="45.7386" lon="4.68451">
        <ele>337.56</ele>
        <time>2012-06-10T09:10:22Z</time>
      </trkpt>
      <trkpt lat="45.73905" lon="4.68406">
        <ele>341.41</ele>
        <time>2012-06-10T09:10:36Z</time>
      </trkpt>
      <trkpt lat="45.73944" lon="4.68374">
        <ele>344.29</ele>
        <time>2012-06-10T09:10:54Z</time>
      </trkpt>
      <trkpt lat="45.73952" lon="4.68378">
        <ele>343.33</ele>
        <time>2012-06-10T09:10:58Z</time>
      </trkpt>
      <trkpt lat="45.73981" lon="4.68416">
        <ele>343.33</ele>
        <time>2012-06-10T09:11:11Z</time>
      </trkpt>
      <trkpt lat="45.74028" lon="4.68497">
        <ele>342.85</ele>
        <time>2012-06-10T09:11:26Z</time>
      </trkpt>
      <trkpt lat="45.74038" lon="4.68515">
        <ele>342.85</ele>
        <time>2012-06-10T09:11:29Z</time>
      </trkpt>
      <trkpt lat="45.74104" lon="4.68574">
        <ele>340.92</ele>
        <time>2012-06-10T09:11:43Z</time>
      </trkpt>
      <trkpt lat="45.74122" lon="4.68583">
        <ele>340.44</ele>
        <time>2012-06-10T09:11:46Z</time>
      </trkpt>
      <trkpt lat="45.74206" lon="4.68586">
        <ele>336.6</ele>
        <time>2012-06-10T09:11:59Z</time>
      </trkpt>
      <trkpt lat="45.74302" lon="4.68563">
        <ele>332.75</ele>
        <time>2012-06-10T09:12:11Z</time>
      </trkpt>
      <trkpt lat="45.74353" lon="4.68584">
        <ele>331.79</ele>
        <time>2012-06-10T09:12:18Z</time>
      </trkpt>
      <trkpt lat="45.74427" lon="4.68659">
        <ele>330.35</ele>
        <time>2012-06-10T09:12:31Z</time>
      </trkpt>
      <trkpt lat="45.74443" lon="4.68691">
        <ele>329.87</ele>
        <time>2012-06-10T09:12:35Z</time>
      </trkpt>
      <trkpt lat="45.74488" lon="4.68819">
        <ele>326.02</ele>
        <time>2012-06-10T09:12:49Z</time>
      </trkpt>
      <trkpt lat="45.74535" lon="4.68954">
        <ele>323.14</ele>
        <time>2012-06-10T09:13:03Z</time>
      </trkpt>
      <trkpt lat="45.74546" lon="4.69023">
        <ele>322.66</ele>
        <time>2012-06-10T09:13:11Z</time>
      </trkpt>
      <trkpt lat="45.74525" lon="4.6904">
        <ele>322.18</ele>
        <time>2012-06-10T09:13:19Z</time>
      </trkpt>
      <trkpt lat="45.7452" lon="4.69058">
        <ele>321.7</ele>
        <time>2012-06-10T09:13:22Z</time>
      </trkpt>
      <trkpt lat="45.74512" lon="4.69146">
        <ele>321.7</ele>
        <time>2012-06-10T09:13:36Z</time>
      </trkpt>
      <trkpt lat="45.74521" lon="4.69216">
        <ele>320.74</ele>
        <time>2012-06-10T09:13:47Z</time>
      </trkpt>
      <trkpt lat="45.74517" lon="4.69293">
        <ele>319.3</ele>
        <time>2012-06-10T09:13:58Z</time>
      </trkpt>
      <trkpt lat="45.74527" lon="4.69327">
        <ele>319.3</ele>
        <time>2012-06-10T09:14:04Z</time>
      </trkpt>
      <trkpt lat="45.74531" lon="4.69412">
        <ele>316.89</ele>
        <time>2012-06-10T09:14:19Z</time>
      </trkpt>
      <trkpt lat="45.74536" lon="4.69492">
        <ele>314.01</ele>
        <time>2012-06-10T09:14:30Z</time>
      </trkpt>
      <trkpt lat="45.74538" lon="4.69544">
        <ele>313.05</ele>
        <time>2012-06-10T09:14:37Z</time>
      </trkpt>
      <trkpt lat="45.74544" lon="4.69683">
        <ele>308.72</ele>
        <time>2012-06-10T09:14:55Z</time>
      </trkpt>
      <trkpt lat="45.74549" lon="4.698">
        <ele>308.24</ele>
        <time>2012-06-10T09:15:11Z</time>
      </trkpt>
      <trkpt lat="45.74552" lon="4.69859">
        <ele>306.32</ele>
        <time>2012-06-10T09:15:25Z</time>
      </trkpt>
      <trkpt lat="45.74554" lon="4.69937">
        <ele>305.36</ele>
        <time>2012-06-10T09:15:38Z</time>
      </trkpt>
      <trkpt lat="45.74555" lon="4.6995">
        <ele>305.36</ele>
        <time>2012-06-10T09:15:40Z</time>
      </trkpt>
      <trkpt lat="45.74557" lon="4.69997">
        <ele>303.91</ele>
        <time>2012-06-10T09:15:51Z</time>
      </trkpt>
      <trkpt lat="45.74547" lon="4.7004">
        <ele>301.99</ele>
        <time>2012-06-10T09:16:00Z</time>
      </trkpt>
      <trkpt lat="45.74534" lon="4.70071">
        <ele>301.99</ele>
        <time>2012-06-10T09:16:06Z</time>
      </trkpt>
      <trkpt lat="45.74509" lon="4.70117">
        <ele>301.51</ele>
        <time>2012-06-10T09:16:16Z</time>
      </trkpt>
      <trkpt lat="45.74503" lon="4.70123">
        <ele>303.43</ele>
        <time>2012-06-10T09:16:27Z</time>
      </trkpt>
      <trkpt lat="45.74504" lon="4.70125">
        <ele>304.88</ele>
        <time>2012-06-10T09:16:45Z</time>
      </trkpt>
      <trkpt lat="45.74503" lon="4.70126">
        <ele>306.32</ele>
        <time>2012-06-10T09:17:05Z</time>
      </trkpt>
      <trkpt lat="45.74503" lon="4.70126">
        <ele>307.28</ele>
        <time>2012-06-10T09:17:25Z</time>
      </trkpt>
      <trkpt lat="45.74502" lon="4.70127">
        <ele>307.28</ele>
        <time>2012-06-10T09:17:30Z</time>
      </trkpt>
      <trkpt lat="45.74497" lon="4.70145">
        <ele>307.28</ele>
        <time>2012-06-10T09:17:38Z</time>
      </trkpt>
      <trkpt lat="45.7448" lon="4.70191">
        <ele>306.32</ele>
        <time>2012-06-10T09:17:51Z</time>
      </trkpt>
      <trkpt lat="45.74465" lon="4.70228">
        <ele>306.32</ele>
        <time>2012-06-10T09:18:02Z</time>
      </trkpt>
      <trkpt lat="45.74438" lon="4.70267">
        <ele>306.8</ele>
        <time>2012-06-10T09:18:15Z</time>
      </trkpt>
      <trkpt lat="45.74407" lon="4.70303">
        <ele>306.32</ele>
        <time>2012-06-10T09:18:30Z</time>
      </trkpt>
      <trkpt lat="45.74371" lon="4.70341">
        <ele>305.84</ele>
        <time>2012-06-10T09:18:45Z</time>
      </trkpt>
      <trkpt lat="45.74347" lon="4.70401">
        <ele>303.91</ele>
        <time>2012-06-10T09:18:59Z</time>
      </trkpt>
      <trkpt lat="45.74322" lon="4.70472">
        <ele>302.47</ele>
        <time>2012-06-10T09:19:15Z</time>
      </trkpt>
      <trkpt lat="45.74282" lon="4.70528">
        <ele>301.51</ele>
        <time>2012-06-10T09:19:31Z</time>
      </trkpt>
      <trkpt lat="45.7427" lon="4.70542">
        <ele>301.03</ele>
        <time>2012-06-10T09:19:35Z</time>
      </trkpt>
      <trkpt lat="45.74257" lon="4.70583">
        <ele>299.59</ele>
        <time>2012-06-10T09:19:45Z</time>
      </trkpt>
      <trkpt lat="45.74267" lon="4.70628">
        <ele>299.11</ele>
        <time>2012-06-10T09:19:54Z</time>
      </trkpt>
      <trkpt lat="45.74262" lon="4.707">
        <ele>298.63</ele>
        <time>2012-06-10T09:20:07Z</time>
      </trkpt>
      <trkpt lat="45.74255" lon="4.70746">
        <ele>298.63</ele>
        <time>2012-06-10T09:20:15Z</time>
      </trkpt>
      <trkpt lat="45.74257" lon="4.70847">
        <ele>299.59</ele>
        <time>2012-06-10T09:20:33Z</time>
      </trkpt>
      <trkpt lat="45.74254" lon="4.70898">
        <ele>300.55</ele>
        <time>2012-06-10T09:20:45Z</time>
      </trkpt>
      <trkpt lat="45.74253" lon="4.70941">
        <ele>300.07</ele>
        <time>2012-06-10T09:21:01Z</time>
      </trkpt>
    </trkseg>
  </trk>
</gpx>